createdAt,value
2018-01-02T00:01:49.563Z,6.30
2018-01-02T00:04:17.037Z,6.30
2018-01-02T00:06:44.560Z,6.40
2018-01-02T00:09:22.867Z,6.30
2018-01-02T00:11:55.307Z,6.30
2018-01-02T00:14:22.804Z,6.30
2018-01-02T00:16:50.849Z,6.30
2018-01-02T00:22:21.900Z,6.20
2018-01-02T00:24:49.471Z,6.30
2018-01-02T00:27:19.587Z,6.20
2018-01-02T00:29:47.823Z,6.20
2018-01-02T00:32:18.626Z,6.20
2018-01-02T00:34:47.266Z,6.20
2018-01-02T00:37:17.026Z,6.20
2018-01-02T01:35:10.745Z,6.10
2018-01-02T01:37:38.235Z,6.00
2018-01-02T01:40:06.649Z,6.00
2018-01-02T01:42:35.038Z,6.00
2018-01-02T02:10:56.574Z,5.50
2018-01-02T02:13:24.073Z,5.50
2018-01-02T02:15:52.350Z,5.50
2018-01-02T02:18:19.897Z,5.50
2018-01-02T02:20:47.429Z,5.50
2018-01-02T02:23:15.017Z,5.40
2018-01-02T02:25:42.506Z,5.40
2018-01-02T02:28:10.040Z,5.40
2018-01-02T02:30:37.601Z,5.40
2018-01-02T02:33:05.090Z,5.30
2018-01-02T02:35:32.613Z,5.30
2018-01-02T02:38:00.104Z,5.20
2018-01-02T02:40:27.660Z,5.20
2018-01-02T02:42:55.924Z,5.10
2018-01-02T02:45:24.214Z,5.20
2018-01-02T02:47:51.731Z,5.10
2018-01-02T02:50:19.234Z,5.20
2018-01-02T02:52:46.770Z,5.20
2018-01-02T02:55:14.301Z,5.20
2018-01-02T02:57:41.845Z,5.30
2018-01-02T03:00:09.349Z,5.30
2018-01-02T03:02:37.620Z,5.40
2018-01-02T03:05:05.085Z,5.40
2018-01-02T03:07:32.601Z,5.40
2018-01-02T03:10:00.117Z,5.40
2018-01-02T03:12:27.644Z,5.40
2018-01-02T03:14:55.193Z,5.40
2018-01-02T03:17:22.691Z,5.30
2018-01-02T03:19:50.189Z,5.20
2018-01-02T03:22:17.692Z,5.20
2018-01-02T03:24:45.955Z,5.10
2018-01-02T03:27:13.437Z,5.10
2018-01-02T03:29:41.701Z,5.00
2018-01-02T03:32:09.984Z,5.00
2018-01-02T03:34:38.281Z,4.90
2018-01-02T03:37:05.806Z,4.90
2018-01-02T03:39:33.318Z,4.90
2018-01-02T03:42:00.845Z,4.90
2018-01-02T03:44:28.371Z,4.80
2018-01-02T03:46:56.623Z,4.80
2018-01-02T03:49:24.112Z,4.80
2018-01-02T03:51:51.660Z,4.80
2018-01-02T03:54:19.245Z,4.70
2018-01-02T03:56:47.546Z,4.70
2018-01-02T03:59:18.838Z,4.70
2018-01-02T04:01:46.360Z,4.70
2018-01-02T04:04:13.918Z,4.70
2018-01-02T04:06:41.397Z,4.60
2018-01-02T04:09:08.953Z,4.60
2018-01-02T04:11:36.501Z,4.60
2018-01-02T04:14:04.462Z,4.60
2018-01-02T04:16:31.939Z,4.60
2018-01-02T04:18:59.474Z,4.60
2018-01-02T04:21:26.981Z,4.70
2018-01-02T04:23:54.481Z,4.80
2018-01-02T04:26:21.966Z,4.80
2018-01-02T04:28:49.520Z,4.80
2018-01-02T04:31:17.058Z,4.90
2018-01-02T04:33:44.626Z,5.00
2018-01-02T04:36:12.143Z,5.00
2018-01-02T04:38:39.633Z,5.00
2018-01-02T04:41:07.193Z,5.10
2018-01-02T04:43:34.788Z,5.10
2018-01-02T04:46:02.300Z,5.20
2018-01-02T04:48:30.602Z,5.20
2018-01-02T04:50:58.146Z,5.20
2018-01-02T04:53:25.655Z,5.20
2018-01-02T04:55:53.188Z,5.30
2018-01-02T04:58:20.661Z,5.30
2018-01-02T05:00:48.137Z,5.40
2018-01-02T05:03:15.692Z,5.40
2018-01-02T05:05:43.234Z,5.40
2018-01-02T05:08:10.713Z,5.50
2018-01-02T05:10:38.412Z,5.50
2018-01-02T05:13:06.768Z,5.60
2018-01-02T05:15:34.993Z,5.60
2018-01-02T05:18:02.626Z,5.70
2018-01-02T05:20:30.263Z,5.70
2018-01-02T05:22:58.656Z,5.70
2018-01-02T05:25:26.303Z,5.70
2018-01-02T05:27:53.908Z,5.80
2018-01-02T05:30:21.535Z,5.80
2018-01-02T05:32:49.183Z,5.80
2018-01-02T05:35:16.776Z,5.80
2018-01-02T05:37:44.423Z,5.80
2018-01-02T05:40:12.795Z,5.70
2018-01-02T05:42:41.160Z,5.70
2018-01-02T05:45:09.677Z,5.70
2018-01-02T05:47:40.992Z,5.70
2018-01-02T05:50:09.457Z,5.70
2018-01-02T05:52:41.643Z,5.70
2018-01-02T05:58:03.314Z,5.60
2018-01-02T06:00:30.862Z,5.50
2018-01-02T06:02:59.200Z,5.50
2018-01-02T06:05:28.036Z,5.50
2018-01-02T06:07:56.557Z,5.60
2018-01-02T06:10:24.214Z,5.60
2018-01-02T06:12:51.758Z,5.70
2018-01-02T06:15:19.397Z,5.70
2018-01-02T06:17:47.759Z,5.80
2018-01-02T06:20:16.129Z,5.80
2018-01-02T06:22:43.756Z,5.80
2018-01-02T06:25:11.381Z,5.80
2018-01-02T06:27:39.008Z,5.80
2018-01-02T06:30:06.611Z,5.70
2018-01-02T06:32:34.242Z,5.70
2018-01-02T06:35:01.887Z,5.70
2018-01-02T06:37:35.978Z,5.70
2018-01-02T06:42:59.684Z,5.70
2018-01-02T06:45:27.281Z,5.70
2018-01-02T06:47:54.994Z,5.70
2018-01-02T06:50:22.599Z,5.70
2018-01-02T06:52:50.937Z,5.70
2018-01-02T06:55:18.575Z,5.70
2018-01-02T06:57:46.173Z,5.70
2018-01-02T07:00:33.313Z,5.70
2018-01-02T07:39:31.750Z,5.60
2018-01-02T07:41:59.999Z,5.60
2018-01-02T07:44:31.173Z,5.60
2018-01-02T07:46:59.545Z,5.70
2018-01-02T07:49:27.792Z,5.70
2018-01-02T07:51:55.266Z,5.70
2018-01-02T07:54:22.774Z,5.70
2018-01-02T07:56:50.305Z,5.70
2018-01-02T07:59:18.585Z,5.60
2018-01-02T08:01:46.105Z,5.60
2018-01-02T08:04:17.911Z,5.60
2018-01-02T08:06:45.445Z,5.60
2018-01-02T08:09:16.791Z,5.50
2018-01-02T08:11:45.078Z,5.50
2018-01-02T08:14:12.662Z,5.40
2018-01-02T08:16:40.195Z,5.40
2018-01-02T08:19:07.719Z,5.40
2018-01-02T08:21:41.236Z,5.50
2018-01-02T08:24:08.720Z,5.60
2018-01-02T08:26:36.958Z,5.70
2018-01-02T08:29:04.513Z,5.70
2018-01-02T08:31:34.987Z,5.70
2018-01-02T08:34:15.162Z,5.70
2018-01-02T08:36:42.625Z,5.80
2018-01-02T08:39:16.045Z,5.80
2018-01-02T08:41:43.506Z,5.80
2018-01-02T08:44:11.033Z,5.80
2018-01-02T08:52:26.798Z,5.90
2018-01-02T08:54:54.308Z,5.90
2018-01-02T08:57:21.888Z,6.00
2018-01-02T08:59:49.457Z,6.10
2018-01-02T09:02:17.017Z,6.10
2018-01-02T09:04:44.565Z,6.10
2018-01-02T09:07:18.587Z,6.20
2018-01-02T09:09:49.340Z,6.30
2018-01-02T09:12:24.722Z,6.30
2018-01-02T09:14:52.278Z,6.40
2018-01-02T09:17:19.809Z,6.40
2018-01-02T09:19:47.281Z,6.50
2018-01-02T09:22:14.798Z,6.50
2018-01-02T09:24:42.347Z,6.50
2018-01-02T09:27:09.957Z,6.60
2018-01-02T09:29:46.125Z,6.70
2018-01-02T09:32:19.034Z,6.70
2018-01-02T09:34:47.839Z,6.70
2018-01-02T09:37:15.340Z,6.70
2018-01-02T10:21:19.861Z,6.80
2018-01-02T10:23:48.131Z,6.90
2018-01-02T10:26:19.221Z,6.90
2018-01-02T10:28:48.528Z,6.90
2018-01-02T10:31:16.058Z,6.90
2018-01-02T10:33:46.811Z,6.90
2018-01-02T10:36:31.030Z,6.90
2018-01-02T10:38:59.400Z,7.00
2018-01-02T10:41:26.915Z,7.00
2018-01-02T10:43:54.425Z,7.00
2018-01-02T10:46:22.792Z,7.00
2018-01-02T10:48:50.325Z,7.00
2018-01-02T10:51:17.830Z,7.10
2018-01-02T10:53:45.368Z,7.00
2018-01-02T10:56:37.108Z,7.00
2018-01-02T10:59:04.634Z,7.00
2018-01-02T11:04:19.494Z,7.00
2018-01-02T11:06:47.001Z,7.00
2018-01-02T11:09:15.333Z,7.10
2018-01-02T11:11:59.266Z,7.10
2018-01-02T11:14:32.784Z,7.20
2018-01-02T11:17:03.882Z,7.20
2018-01-02T11:19:37.486Z,7.30
2018-01-02T11:22:04.983Z,7.30
2018-01-02T11:24:32.467Z,7.40
2018-01-02T11:26:59.990Z,7.50
2018-01-02T11:29:27.463Z,7.50
2018-01-02T11:31:55.022Z,7.60
2018-01-02T11:34:22.532Z,7.60
2018-01-02T11:36:49.998Z,7.50
2018-01-02T11:39:17.477Z,7.60
2018-01-02T11:41:45.023Z,7.60
2018-01-02T11:44:12.512Z,7.60
2018-01-02T11:46:40.014Z,7.50
2018-01-02T11:49:08.290Z,7.40
2018-01-02T11:51:36.562Z,7.60
2018-01-02T11:54:04.834Z,7.60
2018-01-02T11:56:33.893Z,7.60
2018-01-02T11:59:01.418Z,7.60
2018-01-02T12:01:28.926Z,7.70
2018-01-02T12:03:56.389Z,7.70
2018-01-02T12:06:23.870Z,7.80
2018-01-02T12:08:52.169Z,7.80
2018-01-02T12:11:19.733Z,7.80
2018-01-02T12:13:47.242Z,7.80
2018-01-02T12:16:14.782Z,7.90
2018-01-02T12:18:42.344Z,8.00
2018-01-02T12:21:09.890Z,8.00
2018-01-02T12:23:37.433Z,7.90
2018-01-02T12:26:04.919Z,8.00
2018-01-02T12:28:32.400Z,8.00
2018-01-02T12:31:11.427Z,8.10
2018-01-02T12:33:38.893Z,8.00
2018-01-02T12:36:07.839Z,8.00
2018-01-02T12:38:35.319Z,8.00
2018-01-02T12:41:02.810Z,8.00
2018-01-02T12:43:30.326Z,8.10
2018-01-02T12:46:04.451Z,8.10
2018-01-02T12:48:31.966Z,8.00
2018-01-02T12:50:59.486Z,7.90
2018-01-02T12:53:26.979Z,7.80
2018-01-02T12:58:44.165Z,7.70
2018-01-02T13:01:12.613Z,7.70
2018-01-02T13:03:40.866Z,7.60
2018-01-02T13:06:08.469Z,7.60
2018-01-02T13:08:36.064Z,7.50
2018-01-02T13:11:04.373Z,7.50
2018-01-02T13:13:31.902Z,7.40
2018-01-02T13:16:02.685Z,7.40
2018-01-02T13:18:30.235Z,7.40
2018-01-02T13:20:57.759Z,7.40
2018-01-02T13:23:25.318Z,7.40
2018-01-02T13:25:53.592Z,7.40
2018-01-02T13:28:21.872Z,7.50
2018-01-02T13:30:50.218Z,7.50
2018-01-02T13:33:17.830Z,7.50
2018-01-02T13:35:45.369Z,7.50
2018-01-02T13:38:13.671Z,7.50
2018-01-02T13:40:41.143Z,7.50
2018-01-02T13:43:08.713Z,7.50
2018-01-02T13:45:42.521Z,7.50
2018-01-02T13:48:09.973Z,7.50
2018-01-02T13:50:37.484Z,7.40
2018-01-02T14:01:33.507Z,7.40
2018-01-02T14:04:01.066Z,7.40
2018-01-02T14:06:39.163Z,7.40
2018-01-02T14:09:07.392Z,7.40
2018-01-02T14:11:34.923Z,7.40
2018-01-02T14:14:02.518Z,7.40
2018-01-02T14:16:30.068Z,7.40
2018-01-02T14:18:57.641Z,7.30
2018-01-02T14:21:25.127Z,7.30
2018-01-02T14:23:52.686Z,7.30
2018-01-02T14:26:20.202Z,7.30
2018-01-02T14:28:47.682Z,7.30
2018-01-02T14:31:15.989Z,7.20
2018-01-02T14:33:43.542Z,7.20
2018-01-02T14:36:11.067Z,7.20
2018-01-02T14:38:38.594Z,7.20
2018-01-02T14:41:06.085Z,7.30
2018-01-02T14:43:33.605Z,7.30
2018-01-02T14:46:01.169Z,7.30
2018-01-02T14:48:28.708Z,7.20
2018-01-02T14:50:56.313Z,7.20
2018-01-02T14:53:23.866Z,7.10
2018-01-02T14:55:51.434Z,7.00
2018-01-02T14:58:18.980Z,7.00
2018-01-02T15:00:46.461Z,6.90
2018-01-02T15:03:13.977Z,6.90
2018-01-02T15:05:41.461Z,6.90
2018-01-02T15:08:09.019Z,6.80
2018-01-02T15:10:36.554Z,6.70
2018-01-02T15:13:04.065Z,6.70
2018-01-02T15:15:31.578Z,6.60
2018-01-02T15:17:59.083Z,6.60
2018-01-02T15:20:27.401Z,6.50
2018-01-02T15:22:58.407Z,6.40
2018-01-02T15:25:43.541Z,6.40
2018-01-02T15:28:11.027Z,6.40
2018-01-02T15:30:45.051Z,6.30
2018-01-02T15:33:12.529Z,6.30
2018-01-02T15:35:40.037Z,6.30
2018-01-02T15:47:00.946Z,6.20
2018-01-02T15:49:28.464Z,6.20
2018-01-02T15:51:55.968Z,6.30
2018-01-02T15:54:23.478Z,6.30
2018-01-02T15:56:51.018Z,6.20
2018-01-02T15:59:18.522Z,6.20
2018-01-02T16:01:46.026Z,6.30
2018-01-02T16:04:13.537Z,6.30
2018-01-02T16:06:57.666Z,6.20
2018-01-02T16:12:29.114Z,6.20
2018-01-02T16:14:56.588Z,6.20
2018-01-02T16:17:24.106Z,6.20
2018-01-02T16:24:08.530Z,6.20
2018-01-02T16:26:36.014Z,6.20
2018-01-02T16:29:04.308Z,6.20
2018-01-02T16:31:35.039Z,6.20
2018-01-02T16:34:02.643Z,6.20
2018-01-02T16:36:30.173Z,6.20
2018-01-02T16:39:00.742Z,6.20
2018-01-02T16:44:37.893Z,6.20
2018-01-02T16:47:05.410Z,6.20
2018-01-02T16:49:37.606Z,6.20
2018-01-02T16:52:09.656Z,6.20
2018-01-02T17:38:31.685Z,6.10
2018-01-02T17:43:57.950Z,6.10
2018-01-02T17:46:26.188Z,6.10
2018-01-02T17:51:57.919Z,6.20
2018-01-02T18:11:45.139Z,6.30
2018-01-02T18:14:14.187Z,6.30
2018-01-02T18:16:45.300Z,6.30
2018-01-02T18:22:06.274Z,6.40
2018-01-02T18:24:33.760Z,6.40
2018-01-02T18:27:07.870Z,6.40
2018-01-02T18:29:35.380Z,6.50
2018-01-02T18:32:07.433Z,6.50
2018-01-02T18:37:42.846Z,6.50
2018-01-02T18:40:11.004Z,6.50
2018-01-02T18:42:38.565Z,6.50
2018-01-02T18:45:06.126Z,6.50
2018-01-02T18:47:33.706Z,6.50
2018-01-02T18:50:01.987Z,6.60
2018-01-02T18:52:29.546Z,6.60
2018-01-02T18:54:57.122Z,6.60
2018-01-02T18:57:25.527Z,6.50
2018-01-02T19:00:03.839Z,6.60
2018-01-02T19:02:31.372Z,6.60
2018-01-02T19:04:58.922Z,6.60
2018-01-02T19:07:26.418Z,6.50
2018-01-02T19:09:54.040Z,6.50
2018-01-02T19:12:29.601Z,6.50
2018-01-02T19:14:57.086Z,6.50
2018-01-02T19:17:25.256Z,6.50
2018-01-02T19:22:56.594Z,6.50
2018-01-02T19:40:34.471Z,6.50
2018-01-02T19:43:02.248Z,6.40
2018-01-02T19:45:43.217Z,6.40
2018-01-02T19:48:10.733Z,6.30
2018-01-02T19:50:52.957Z,6.40
2018-01-02T19:53:21.757Z,6.40
2018-01-02T19:56:02.578Z,6.30
2018-01-02T19:58:45.465Z,6.30
2018-01-02T20:01:27.495Z,6.20
2018-01-02T20:04:05.462Z,6.20
2018-01-02T20:06:33.966Z,6.20
2018-01-02T20:09:14.759Z,6.20
2018-01-02T20:11:45.038Z,6.20
2018-01-02T20:37:16.165Z,6.10
2018-01-02T20:39:43.748Z,6.00
2018-01-02T20:45:10.306Z,6.00
2018-01-02T20:50:35.369Z,6.00
2018-01-02T20:59:02.310Z,6.00
2018-01-02T21:01:36.427Z,6.00
2018-01-02T21:13:21.093Z,5.90
2018-01-02T21:15:48.717Z,6.00
2018-01-02T21:18:17.515Z,6.00
2018-01-02T21:20:50.711Z,6.00
2018-01-02T21:26:18.686Z,6.10
2018-01-02T21:28:46.260Z,6.00
2018-01-02T21:31:14.534Z,6.10
2018-01-02T21:33:42.060Z,6.20
2018-01-02T21:36:09.614Z,6.10
2018-01-02T21:38:37.110Z,6.20
2018-01-02T21:41:05.166Z,6.20
2018-01-02T21:43:32.693Z,6.20
2018-01-02T21:46:00.274Z,6.20
2018-01-02T21:48:27.828Z,6.20
2018-01-02T21:50:55.353Z,6.20
2018-01-02T21:53:23.992Z,6.20
2018-01-02T21:55:51.579Z,6.20
2018-01-02T21:58:19.867Z,6.30
2018-01-02T22:00:47.421Z,6.20
2018-01-02T22:03:15.785Z,6.30
2018-01-02T22:05:43.277Z,6.30
2018-01-02T22:08:10.818Z,6.30
2018-01-02T22:10:39.098Z,6.30
2018-01-02T22:13:07.388Z,6.30
2018-01-02T22:15:35.058Z,6.30
2018-01-02T22:18:02.621Z,6.40
2018-01-02T22:20:30.170Z,6.40
2018-01-02T22:22:57.715Z,6.50
2018-01-02T22:25:25.188Z,6.50
2018-01-02T22:27:52.714Z,6.50
2018-01-02T22:30:20.237Z,6.50
2018-01-02T22:32:47.724Z,6.60
2018-01-02T22:35:15.215Z,6.60
2018-01-02T22:37:55.157Z,6.60
2018-01-02T22:40:29.015Z,6.70
2018-01-02T22:42:56.506Z,6.70
2018-01-02T22:45:24.075Z,6.70
2018-01-02T22:47:52.335Z,6.80
2018-01-02T22:50:19.809Z,6.80
2018-01-02T22:52:48.090Z,6.80
2018-01-02T22:55:15.611Z,6.80
2018-01-02T22:57:43.102Z,6.90
2018-01-02T23:00:10.598Z,6.90
2018-01-02T23:02:38.106Z,6.90
2018-01-02T23:05:05.618Z,7.00
2018-01-02T23:07:33.169Z,7.00
2018-01-02T23:10:00.718Z,7.00
2018-01-02T23:12:29.019Z,7.00
2018-01-02T23:14:59.095Z,7.00
2018-01-02T23:17:27.329Z,7.10
2018-01-02T23:19:54.830Z,7.00
2018-01-02T23:22:22.305Z,7.10
2018-01-02T23:24:49.862Z,7.10
2018-01-02T23:27:17.402Z,7.20
2018-01-02T23:29:44.870Z,7.20
2018-01-02T23:32:13.169Z,7.30
2018-01-02T23:34:40.682Z,7.30
2018-01-02T23:37:08.152Z,7.30
2018-01-02T23:39:35.645Z,7.30
2018-01-02T23:42:03.339Z,7.30
2018-01-02T23:44:30.955Z,7.30
2018-01-02T23:46:58.441Z,7.30
2018-01-02T23:49:25.983Z,7.40
2018-01-02T23:51:53.466Z,7.40
2018-01-02T23:54:21.028Z,7.40
2018-01-02T23:56:48.502Z,7.40
2018-01-02T23:59:16.046Z,7.50
